sensor_id;sensor_type;location;lat;lon;timestamp;P1;durP1;ratioP1;P2;durP2;ratioP2
35693;SDS011;21812;55.536;37.664;2023-05-17T00:01:34;11.38;;;5.55;;
35693;SDS011;21812;55.536;37.664;2023-05-17T00:03:59;10.10;;;6.63;;
35693;SDS011;21812;55.536;37.664;2023-05-17T00:06:25;14.05;;;5.88;;
35693;SDS011;21812;55.536;37.664;2023-05-17T00:08:51;14.13;;;6.53;;
35693;SDS011;21812;55.536;37.664;2023-05-17T00:11:16;10.95;;;5.70;;
35693;SDS011;21812;55.536;37.664;2023-05-17T00:13:42;17.80;;;5.75;;
35693;SDS011;21812;55.536;37.664;2023-05-17T00:16:08;9.45;;;5.65;;
35693;SDS011;21812;55.536;37.664;2023-05-17T00:18:34;19.45;;;6.32;;
35693;SDS011;21812;55.536;37.664;2023-05-17T00:20:59;13.07;;;6.95;;
35693;SDS011;21812;55.536;37.664;2023-05-17T00:23:25;20.77;;;7.00;;
35693;SDS011;21812;55.536;37.664;2023-05-17T00:25:51;11.93;;;6.78;;
35693;SDS011;21812;55.536;37.664;2023-05-17T00:28:16;11.55;;;7.28;;
35693;SDS011;21812;55.536;37.664;2023-05-17T00:30:42;19.13;;;7.95;;
35693;SDS011;21812;55.536;37.664;2023-05-17T00:33:08;15.68;;;7.75;;
35693;SDS011;21812;55.536;37.664;2023-05-17T00:35:33;9.13;;;5.80;;
35693;SDS011;21812;55.536;37.664;2023-05-17T00:37:59;22.30;;;8.55;;
35693;SDS011;21812;55.536;37.664;2023-05-17T00:40:25;13.93;;;6.32;;
35693;SDS011;21812;55.536;37.664;2023-05-17T00:42:51;11.45;;;7.47;;
35693;SDS011;21812;55.536;37.664;2023-05-17T00:45:16;10.50;;;6.32;;
35693;SDS011;21812;55.536;37.664;2023-05-17T00:47:42;10.82;;;6.25;;
35693;SDS011;21812;55.536;37.664;2023-05-17T00:50:08;10.57;;;6.68;;
35693;SDS011;21812;55.536;37.664;2023-05-17T00:52:34;9.43;;;7.03;;
35693;SDS011;21812;55.536;37.664;2023-05-17T00:55:01;12.57;;;6.45;;
35693;SDS011;21812;55.536;37.664;2023-05-17T00:57:31;11.95;;;6.72;;
35693;SDS011;21812;55.536;37.664;2023-05-17T00:59:57;12.98;;;6.75;;
35693;SDS011;21812;55.536;37.664;2023-05-17T01:02:23;13.50;;;6.57;;
35693;SDS011;21812;55.536;37.664;2023-05-17T01:04:48;12.82;;;7.30;;
35693;SDS011;21812;55.536;37.664;2023-05-17T01:07:15;13.60;;;6.65;;
35693;SDS011;21812;55.536;37.664;2023-05-17T01:09:45;15.90;;;7.22;;
35693;SDS011;21812;55.536;37.664;2023-05-17T01:12:23;14.88;;;6.93;;
35693;SDS011;21812;55.536;37.664;2023-05-17T01:15:07;15.85;;;7.40;;
35693;SDS011;21812;55.536;37.664;2023-05-17T01:20:19;10.50;;;6.93;;
35693;SDS011;21812;55.536;37.664;2023-05-17T01:28:44;10.23;;;7.10;;
35693;SDS011;21812;55.536;37.664;2023-05-17T01:31:14;16.73;;;6.43;;
35693;SDS011;21812;55.536;37.664;2023-05-17T01:33:41;11.75;;;5.97;;
35693;SDS011;21812;55.536;37.664;2023-05-17T01:36:07;17.02;;;6.63;;
35693;SDS011;21812;55.536;37.664;2023-05-17T01:38:34;14.52;;;7.10;;
35693;SDS011;21812;55.536;37.664;2023-05-17T01:43:47;14.88;;;5.53;;
35693;SDS011;21812;55.536;37.664;2023-05-17T01:48:56;21.67;;;6.80;;
35693;SDS011;21812;55.536;37.664;2023-05-17T01:51:31;13.73;;;6.03;;
35693;SDS011;21812;55.536;37.664;2023-05-17T01:54:01;11.20;;;6.07;;
35693;SDS011;21812;55.536;37.664;2023-05-17T01:56:35;16.70;;;7.57;;
35693;SDS011;21812;55.536;37.664;2023-05-17T01:59:05;17.77;;;6.80;;
35693;SDS011;21812;55.536;37.664;2023-05-17T02:01:31;14.60;;;6.63;;
35693;SDS011;21812;55.536;37.664;2023-05-17T02:03:59;28.65;;;7.15;;
35693;SDS011;21812;55.536;37.664;2023-05-17T02:06:25;23.23;;;6.78;;
35693;SDS011;21812;55.536;37.664;2023-05-17T02:08:50;13.73;;;7.38;;
35693;SDS011;21812;55.536;37.664;2023-05-17T02:11:16;17.20;;;7.03;;
35693;SDS011;21812;55.536;37.664;2023-05-17T02:13:42;18.25;;;7.57;;
35693;SDS011;21812;55.536;37.664;2023-05-17T02:16:07;21.20;;;7.18;;
35693;SDS011;21812;55.536;37.664;2023-05-17T02:18:33;18.52;;;7.18;;
35693;SDS011;21812;55.536;37.664;2023-05-17T02:21:00;12.20;;;6.43;;
35693;SDS011;21812;55.536;37.664;2023-05-17T02:23:26;13.63;;;6.03;;
35693;SDS011;21812;55.536;37.664;2023-05-17T02:25:51;14.02;;;6.65;;
35693;SDS011;21812;55.536;37.664;2023-05-17T02:28:17;12.98;;;6.53;;
35693;SDS011;21812;55.536;37.664;2023-05-17T02:30:43;12.95;;;5.72;;
35693;SDS011;21812;55.536;37.664;2023-05-17T02:33:10;12.95;;;6.25;;
35693;SDS011;21812;55.536;37.664;2023-05-17T02:35:36;13.80;;;5.57;;
35693;SDS011;21812;55.536;37.664;2023-05-17T02:38:02;10.38;;;5.18;;
35693;SDS011;21812;55.536;37.664;2023-05-17T02:40:27;15.57;;;7.32;;
35693;SDS011;21812;55.536;37.664;2023-05-17T02:42:53;13.07;;;5.50;;
35693;SDS011;21812;55.536;37.664;2023-05-17T02:45:19;13.45;;;5.55;;
35693;SDS011;21812;55.536;37.664;2023-05-17T02:47:45;15.13;;;5.65;;
35693;SDS011;21812;55.536;37.664;2023-05-17T02:50:11;12.55;;;5.57;;
35693;SDS011;21812;55.536;37.664;2023-05-17T02:52:37;22.25;;;6.90;;
35693;SDS011;21812;55.536;37.664;2023-05-17T02:55:04;15.13;;;6.22;;
35693;SDS011;21812;55.536;37.664;2023-05-17T02:57:31;10.73;;;5.80;;
35693;SDS011;21812;55.536;37.664;2023-05-17T02:59:57;13.45;;;5.75;;
35693;SDS011;21812;55.536;37.664;2023-05-17T03:02:23;13.95;;;5.82;;
35693;SDS011;21812;55.536;37.664;2023-05-17T03:04:48;9.10;;;5.78;;
35693;SDS011;21812;55.536;37.664;2023-05-17T03:07:15;12.35;;;6.00;;
35693;SDS011;21812;55.536;37.664;2023-05-17T03:09:42;16.50;;;7.43;;
35693;SDS011;21812;55.536;37.664;2023-05-17T03:12:08;9.82;;;5.30;;
35693;SDS011;21812;55.536;37.664;2023-05-17T03:14:34;10.18;;;5.90;;
35693;SDS011;21812;55.536;37.664;2023-05-17T03:17:00;8.20;;;4.90;;
35693;SDS011;21812;55.536;37.664;2023-05-17T03:19:27;9.48;;;4.45;;
35693;SDS011;21812;55.536;37.664;2023-05-17T03:21:53;11.65;;;5.20;;
35693;SDS011;21812;55.536;37.664;2023-05-17T03:24:20;10.45;;;4.90;;
35693;SDS011;21812;55.536;37.664;2023-05-17T03:26:46;14.13;;;5.25;;
35693;SDS011;21812;55.536;37.664;2023-05-17T03:29:13;14.23;;;6.00;;
35693;SDS011;21812;55.536;37.664;2023-05-17T03:31:41;15.35;;;5.25;;
35693;SDS011;21812;55.536;37.664;2023-05-17T03:34:07;13.73;;;5.07;;
35693;SDS011;21812;55.536;37.664;2023-05-17T03:36:33;14.15;;;4.85;;
35693;SDS011;21812;55.536;37.664;2023-05-17T03:39:00;8.18;;;4.78;;
35693;SDS011;21812;55.536;37.664;2023-05-17T03:41:27;34.95;;;9.25;;
35693;SDS011;21812;55.536;37.664;2023-05-17T03:43:53;41.35;;;10.48;;
35693;SDS011;21812;55.536;37.664;2023-05-17T03:46:20;31.70;;;10.02;;
35693;SDS011;21812;55.536;37.664;2023-05-17T03:48:47;29.25;;;9.13;;
35693;SDS011;21812;55.536;37.664;2023-05-17T03:51:12;20.35;;;7.97;;
35693;SDS011;21812;55.536;37.664;2023-05-17T03:53:39;26.05;;;7.40;;
35693;SDS011;21812;55.536;37.664;2023-05-17T03:56:08;16.10;;;6.85;;
35693;SDS011;21812;55.536;37.664;2023-05-17T03:58:35;12.90;;;5.82;;
35693;SDS011;21812;55.536;37.664;2023-05-17T04:01:01;13.57;;;5.90;;
35693;SDS011;21812;55.536;37.664;2023-05-17T04:03:29;9.93;;;5.13;;
35693;SDS011;21812;55.536;37.664;2023-05-17T04:06:04;14.45;;;5.72;;
35693;SDS011;21812;55.536;37.664;2023-05-17T04:08:32;11.07;;;5.10;;
35693;SDS011;21812;55.536;37.664;2023-05-17T04:11:01;17.65;;;5.55;;
35693;SDS011;21812;55.536;37.664;2023-05-17T04:13:41;13.98;;;5.63;;
35693;SDS011;21812;55.536;37.664;2023-05-17T04:16:07;8.32;;;4.35;;
35693;SDS011;21812;55.536;37.664;2023-05-17T04:18:35;12.15;;;4.90;;
35693;SDS011;21812;55.536;37.664;2023-05-17T04:21:02;9.25;;;4.00;;
35693;SDS011;21812;55.536;37.664;2023-05-17T04:23:28;11.60;;;5.03;;
35693;SDS011;21812;55.536;37.664;2023-05-17T04:25:55;54.58;;;15.05;;
35693;SDS011;21812;55.536;37.664;2023-05-17T04:28:23;175.30;;;42.55;;
35693;SDS011;21812;55.536;37.664;2023-05-17T04:30:50;121.13;;;29.58;;
35693;SDS011;21812;55.536;37.664;2023-05-17T04:33:16;87.90;;;23.25;;
35693;SDS011;21812;55.536;37.664;2023-05-17T04:35:43;75.25;;;19.20;;
35693;SDS011;21812;55.536;37.664;2023-05-17T04:38:11;45.50;;;11.32;;
35693;SDS011;21812;55.536;37.664;2023-05-17T04:40:38;56.40;;;15.32;;
35693;SDS011;21812;55.536;37.664;2023-05-17T04:43:04;57.13;;;12.35;;
35693;SDS011;21812;55.536;37.664;2023-05-17T04:45:30;30.45;;;8.82;;
35693;SDS011;21812;55.536;37.664;2023-05-17T04:47:59;25.55;;;8.90;;
35693;SDS011;21812;55.536;37.664;2023-05-17T04:50:25;17.60;;;6.97;;
35693;SDS011;21812;55.536;37.664;2023-05-17T04:52:51;22.67;;;6.45;;
35693;SDS011;21812;55.536;37.664;2023-05-17T04:55:17;26.92;;;6.68;;
35693;SDS011;21812;55.536;37.664;2023-05-17T04:57:43;17.25;;;6.75;;
35693;SDS011;21812;55.536;37.664;2023-05-17T05:00:12;12.73;;;4.82;;
35693;SDS011;21812;55.536;37.664;2023-05-17T05:02:43;9.43;;;3.75;;
35693;SDS011;21812;55.536;37.664;2023-05-17T05:05:10;13.02;;;4.45;;
35693;SDS011;21812;55.536;37.664;2023-05-17T05:07:37;14.55;;;4.57;;
35693;SDS011;21812;55.536;37.664;2023-05-17T05:10:04;22.17;;;5.47;;
35693;SDS011;21812;55.536;37.664;2023-05-17T05:12:31;10.32;;;4.38;;
35693;SDS011;21812;55.536;37.664;2023-05-17T05:14:58;28.77;;;6.88;;
35693;SDS011;21812;55.536;37.664;2023-05-17T05:17:23;6.32;;;3.67;;
35693;SDS011;21812;55.536;37.664;2023-05-17T05:19:49;14.73;;;5.82;;
35693;SDS011;21812;55.536;37.664;2023-05-17T05:22:16;21.95;;;6.03;;
35693;SDS011;21812;55.536;37.664;2023-05-17T05:24:42;5.55;;;3.20;;
35693;SDS011;21812;55.536;37.664;2023-05-17T05:27:08;7.00;;;3.00;;
35693;SDS011;21812;55.536;37.664;2023-05-17T05:29:36;6.82;;;3.45;;
35693;SDS011;21812;55.536;37.664;2023-05-17T05:32:01;13.68;;;4.30;;
35693;SDS011;21812;55.536;37.664;2023-05-17T05:34:27;5.72;;;2.83;;
35693;SDS011;21812;55.536;37.664;2023-05-17T05:36:54;7.55;;;3.03;;
35693;SDS011;21812;55.536;37.664;2023-05-17T05:39:20;10.88;;;3.83;;
35693;SDS011;21812;55.536;37.664;2023-05-17T05:41:46;4.72;;;3.03;;
35693;SDS011;21812;55.536;37.664;2023-05-17T05:44:11;5.88;;;2.88;;
35693;SDS011;21812;55.536;37.664;2023-05-17T05:46:37;6.22;;;2.15;;
35693;SDS011;21812;55.536;37.664;2023-05-17T05:49:04;6.53;;;2.70;;
35693;SDS011;21812;55.536;37.664;2023-05-17T05:51:31;2.90;;;1.77;;
35693;SDS011;21812;55.536;37.664;2023-05-17T05:53:57;9.52;;;2.53;;
35693;SDS011;21812;55.536;37.664;2023-05-17T05:56:24;4.07;;;1.90;;
35693;SDS011;21812;55.536;37.664;2023-05-17T05:58:53;6.25;;;1.85;;
35693;SDS011;21812;55.536;37.664;2023-05-17T06:01:19;4.15;;;2.08;;
35693;SDS011;21812;55.536;37.664;2023-05-17T06:03:45;2.50;;;1.60;;
35693;SDS011;21812;55.536;37.664;2023-05-17T06:06:11;2.30;;;1.20;;
35693;SDS011;21812;55.536;37.664;2023-05-17T06:08:36;9.68;;;2.35;;
35693;SDS011;21812;55.536;37.664;2023-05-17T06:11:02;4.53;;;2.65;;
35693;SDS011;21812;55.536;37.664;2023-05-17T06:13:28;6.00;;;3.05;;
35693;SDS011;21812;55.536;37.664;2023-05-17T06:15:53;6.07;;;2.03;;
35693;SDS011;21812;55.536;37.664;2023-05-17T06:18:19;1.98;;;1.63;;
35693;SDS011;21812;55.536;37.664;2023-05-17T06:20:45;7.00;;;1.70;;
35693;SDS011;21812;55.536;37.664;2023-05-17T06:23:11;4.00;;;1.60;;
35693;SDS011;21812;55.536;37.664;2023-05-17T06:25:36;4.82;;;1.40;;
35693;SDS011;21812;55.536;37.664;2023-05-17T06:28:02;5.22;;;1.73;;
35693;SDS011;21812;55.536;37.664;2023-05-17T06:30:28;3.03;;;1.83;;
35693;SDS011;21812;55.536;37.664;2023-05-17T06:32:55;3.55;;;1.35;;
35693;SDS011;21812;55.536;37.664;2023-05-17T06:35:20;2.63;;;1.48;;
35693;SDS011;21812;55.536;37.664;2023-05-17T06:37:46;3.80;;;1.63;;
35693;SDS011;21812;55.536;37.664;2023-05-17T06:40:12;1.60;;;1.02;;
35693;SDS011;21812;55.536;37.664;2023-05-17T06:42:37;2.05;;;1.35;;
35693;SDS011;21812;55.536;37.664;2023-05-17T06:45:03;5.22;;;1.20;;
35693;SDS011;21812;55.536;37.664;2023-05-17T06:47:30;2.78;;;1.00;;
35693;SDS011;21812;55.536;37.664;2023-05-17T06:49:56;2.53;;;1.10;;
35693;SDS011;21812;55.536;37.664;2023-05-17T06:52:22;1.60;;;1.25;;
35693;SDS011;21812;55.536;37.664;2023-05-17T06:54:47;2.50;;;1.33;;
35693;SDS011;21812;55.536;37.664;2023-05-17T06:57:13;2.08;;;1.08;;
35693;SDS011;21812;55.536;37.664;2023-05-17T06:59:39;1.42;;;1.33;;
35693;SDS011;21812;55.536;37.664;2023-05-17T07:02:04;1.23;;;1.13;;
35693;SDS011;21812;55.536;37.664;2023-05-17T07:04:30;1.52;;;1.35;;
35693;SDS011;21812;55.536;37.664;2023-05-17T07:06:56;6.50;;;1.73;;
35693;SDS011;21812;55.536;37.664;2023-05-17T07:09:22;1.58;;;1.38;;
35693;SDS011;21812;55.536;37.664;2023-05-17T07:11:48;5.00;;;1.48;;
35693;SDS011;21812;55.536;37.664;2023-05-17T07:14:14;1.52;;;1.27;;
35693;SDS011;21812;55.536;37.664;2023-05-17T07:16:39;1.85;;;1.40;;
35693;SDS011;21812;55.536;37.664;2023-05-17T07:19:05;3.38;;;1.95;;
35693;SDS011;21812;55.536;37.664;2023-05-17T07:21:31;2.03;;;1.13;;
35693;SDS011;21812;55.536;37.664;2023-05-17T07:23:57;3.53;;;1.33;;
35693;SDS011;21812;55.536;37.664;2023-05-17T07:26:23;5.68;;;1.55;;
35693;SDS011;21812;55.536;37.664;2023-05-17T07:28:49;2.25;;;1.30;;
35693;SDS011;21812;55.536;37.664;2023-05-17T07:31:16;27.30;;;1.95;;
35693;SDS011;21812;55.536;37.664;2023-05-17T07:33:41;3.22;;;1.00;;
35693;SDS011;21812;55.536;37.664;2023-05-17T07:36:07;2.95;;;1.15;;
35693;SDS011;21812;55.536;37.664;2023-05-17T07:38:33;1.05;;;0.95;;
35693;SDS011;21812;55.536;37.664;2023-05-17T07:41:00;2.53;;;1.52;;
35693;SDS011;21812;55.536;37.664;2023-05-17T07:43:26;2.08;;;1.27;;
35693;SDS011;21812;55.536;37.664;2023-05-17T07:45:52;3.65;;;1.38;;
35693;SDS011;21812;55.536;37.664;2023-05-17T07:48:17;3.10;;;1.30;;
35693;SDS011;21812;55.536;37.664;2023-05-17T07:50:43;5.35;;;1.15;;
35693;SDS011;21812;55.536;37.664;2023-05-17T07:53:09;1.48;;;1.08;;
35693;SDS011;21812;55.536;37.664;2023-05-17T07:55:35;4.32;;;1.20;;
35693;SDS011;21812;55.536;37.664;2023-05-17T07:58:01;2.17;;;1.27;;
35693;SDS011;21812;55.536;37.664;2023-05-17T08:00:26;3.60;;;1.30;;
35693;SDS011;21812;55.536;37.664;2023-05-17T08:02:52;1.83;;;1.50;;
35693;SDS011;21812;55.536;37.664;2023-05-17T08:05:18;3.75;;;2.05;;
35693;SDS011;21812;55.536;37.664;2023-05-17T08:07:44;1.90;;;1.35;;
35693;SDS011;21812;55.536;37.664;2023-05-17T08:10:09;2.58;;;1.52;;
35693;SDS011;21812;55.536;37.664;2023-05-17T08:12:35;2.28;;;1.40;;
35693;SDS011;21812;55.536;37.664;2023-05-17T08:15:01;2.55;;;1.23;;
35693;SDS011;21812;55.536;37.664;2023-05-17T08:17:28;2.60;;;1.25;;
35693;SDS011;21812;55.536;37.664;2023-05-17T08:19:54;1.58;;;1.20;;
35693;SDS011;21812;55.536;37.664;2023-05-17T08:22:19;1.45;;;1.13;;
35693;SDS011;21812;55.536;37.664;2023-05-17T08:24:45;2.20;;;1.27;;
35693;SDS011;21812;55.536;37.664;2023-05-17T08:27:11;2.03;;;1.27;;
35693;SDS011;21812;55.536;37.664;2023-05-17T08:29:37;2.28;;;1.40;;
35693;SDS011;21812;55.536;37.664;2023-05-17T08:32:03;4.00;;;1.52;;
35693;SDS011;21812;55.536;37.664;2023-05-17T08:34:29;2.45;;;1.60;;
35693;SDS011;21812;55.536;37.664;2023-05-17T08:36:54;2.30;;;1.48;;
35693;SDS011;21812;55.536;37.664;2023-05-17T08:39:20;5.00;;;1.77;;
35693;SDS011;21812;55.536;37.664;2023-05-17T08:41:46;3.08;;;1.58;;
35693;SDS011;21812;55.536;37.664;2023-05-17T08:44:13;3.00;;;1.38;;
35693;SDS011;21812;55.536;37.664;2023-05-17T08:46:43;6.25;;;1.23;;
35693;SDS011;21812;55.536;37.664;2023-05-17T08:49:09;2.70;;;1.52;;
35693;SDS011;21812;55.536;37.664;2023-05-17T08:51:37;4.43;;;1.33;;
35693;SDS011;21812;55.536;37.664;2023-05-17T08:54:05;2.10;;;1.50;;
35693;SDS011;21812;55.536;37.664;2023-05-17T08:56:30;5.38;;;1.58;;
35693;SDS011;21812;55.536;37.664;2023-05-17T08:58:57;6.57;;;2.65;;
35693;SDS011;21812;55.536;37.664;2023-05-17T09:01:24;3.83;;;1.60;;
35693;SDS011;21812;55.536;37.664;2023-05-17T09:03:50;4.20;;;1.70;;
35693;SDS011;21812;55.536;37.664;2023-05-17T09:06:16;2.13;;;1.33;;
35693;SDS011;21812;55.536;37.664;2023-05-17T09:08:45;2.67;;;1.50;;
35693;SDS011;21812;55.536;37.664;2023-05-17T09:11:12;2.22;;;1.73;;
35693;SDS011;21812;55.536;37.664;2023-05-17T09:13:56;2.95;;;1.50;;
35693;SDS011;21812;55.536;37.664;2023-05-17T09:16:24;1.63;;;1.40;;
35693;SDS011;21812;55.536;37.664;2023-05-17T09:18:53;2.70;;;1.38;;
35693;SDS011;21812;55.536;37.664;2023-05-17T09:21:20;4.85;;;2.00;;
35693;SDS011;21812;55.536;37.664;2023-05-17T09:23:47;6.82;;;1.63;;
35693;SDS011;21812;55.536;37.664;2023-05-17T09:26:12;1.73;;;1.50;;
35693;SDS011;21812;55.536;37.664;2023-05-17T09:28:39;3.35;;;1.90;;
35693;SDS011;21812;55.536;37.664;2023-05-17T09:31:06;3.58;;;1.55;;
35693;SDS011;21812;55.536;37.664;2023-05-17T09:33:33;2.88;;;1.50;;
35693;SDS011;21812;55.536;37.664;2023-05-17T09:36:18;3.63;;;1.42;;
35693;SDS011;21812;55.536;37.664;2023-05-17T09:38:56;4.25;;;1.52;;
35693;SDS011;21812;55.536;37.664;2023-05-17T09:41:29;3.53;;;1.60;;
35693;SDS011;21812;55.536;37.664;2023-05-17T09:44:07;23.20;;;3.95;;
35693;SDS011;21812;55.536;37.664;2023-05-17T09:46:34;4.00;;;1.85;;
35693;SDS011;21812;55.536;37.664;2023-05-17T09:49:01;3.05;;;1.83;;
35693;SDS011;21812;55.536;37.664;2023-05-17T09:51:34;2.28;;;1.98;;
35693;SDS011;21812;55.536;37.664;2023-05-17T09:54:01;1.95;;;1.60;;
35693;SDS011;21812;55.536;37.664;2023-05-17T09:56:30;3.50;;;1.85;;
35693;SDS011;21812;55.536;37.664;2023-05-17T09:58:56;7.97;;;2.00;;
35693;SDS011;21812;55.536;37.664;2023-05-17T10:01:25;2.17;;;1.73;;
35693;SDS011;21812;55.536;37.664;2023-05-17T10:03:52;2.38;;;1.38;;
35693;SDS011;21812;55.536;37.664;2023-05-17T10:06:20;5.43;;;2.50;;
35693;SDS011;21812;55.536;37.664;2023-05-17T10:08:48;3.42;;;1.80;;
35693;SDS011;21812;55.536;37.664;2023-05-17T10:11:20;1.92;;;1.73;;
35693;SDS011;21812;55.536;37.664;2023-05-17T10:13:50;2.70;;;1.60;;
35693;SDS011;21812;55.536;37.664;2023-05-17T10:16:21;2.35;;;1.83;;
35693;SDS011;21812;55.536;37.664;2023-05-17T10:18:49;2.05;;;1.85;;
35693;SDS011;21812;55.536;37.664;2023-05-17T10:21:15;2.63;;;1.90;;
35693;SDS011;21812;55.536;37.664;2023-05-17T10:23:42;7.55;;;1.60;;
35693;SDS011;21812;55.536;37.664;2023-05-17T10:26:08;3.95;;;1.80;;
35693;SDS011;21812;55.536;37.664;2023-05-17T10:28:35;1.80;;;1.58;;
35693;SDS011;21812;55.536;37.664;2023-05-17T10:31:02;3.95;;;1.98;;
35693;SDS011;21812;55.536;37.664;2023-05-17T10:33:29;3.47;;;1.52;;
35693;SDS011;21812;55.536;37.664;2023-05-17T10:35:57;4.45;;;1.80;;
35693;SDS011;21812;55.536;37.664;2023-05-17T10:38:24;4.45;;;1.92;;
35693;SDS011;21812;55.536;37.664;2023-05-17T10:40:51;2.45;;;1.42;;
35693;SDS011;21812;55.536;37.664;2023-05-17T10:43:18;4.45;;;2.15;;
35693;SDS011;21812;55.536;37.664;2023-05-17T10:45:45;4.78;;;2.05;;
35693;SDS011;21812;55.536;37.664;2023-05-17T10:48:13;3.63;;;1.45;;
35693;SDS011;21812;55.536;37.664;2023-05-17T10:50:39;1.85;;;1.52;;
35693;SDS011;21812;55.536;37.664;2023-05-17T10:53:07;2.78;;;1.42;;
35693;SDS011;21812;55.536;37.664;2023-05-17T10:55:41;2.92;;;1.80;;
35693;SDS011;21812;55.536;37.664;2023-05-17T11:00:45;2.15;;;1.40;;
35693;SDS011;21812;55.536;37.664;2023-05-17T11:05:41;5.47;;;1.60;;
35693;SDS011;21812;55.536;37.664;2023-05-17T11:08:12;4.18;;;1.38;;
35693;SDS011;21812;55.536;37.664;2023-05-17T11:13:50;4.65;;;1.58;;
35693;SDS011;21812;55.536;37.664;2023-05-17T11:16:37;2.40;;;1.58;;
35693;SDS011;21812;55.536;37.664;2023-05-17T11:19:09;3.47;;;1.45;;
35693;SDS011;21812;55.536;37.664;2023-05-17T11:21:46;2.72;;;1.05;;
35693;SDS011;21812;55.536;37.664;2023-05-17T11:24:13;3.72;;;1.25;;
35693;SDS011;21812;55.536;37.664;2023-05-17T11:26:44;2.45;;;1.33;;
35693;SDS011;21812;55.536;37.664;2023-05-17T11:29:10;2.15;;;1.05;;
35693;SDS011;21812;55.536;37.664;2023-05-17T11:31:40;3.63;;;1.38;;
35693;SDS011;21812;55.536;37.664;2023-05-17T11:34:08;1.52;;;1.23;;
35693;SDS011;21812;55.536;37.664;2023-05-17T11:36:51;1.65;;;0.90;;
35693;SDS011;21812;55.536;37.664;2023-05-17T11:39:19;2.50;;;0.95;;
35693;SDS011;21812;55.536;37.664;2023-05-17T11:41:47;1.50;;;1.30;;
35693;SDS011;21812;55.536;37.664;2023-05-17T11:44:27;12.35;;;2.03;;
35693;SDS011;21812;55.536;37.664;2023-05-17T11:47:00;4.60;;;1.20;;
35693;SDS011;21812;55.536;37.664;2023-05-17T11:49:31;3.38;;;1.90;;
35693;SDS011;21812;55.536;37.664;2023-05-17T11:51:58;5.38;;;1.52;;
35693;SDS011;21812;55.536;37.664;2023-05-17T11:54:24;4.85;;;1.10;;
35693;SDS011;21812;55.536;37.664;2023-05-17T11:56:53;3.88;;;1.60;;
35693;SDS011;21812;55.536;37.664;2023-05-17T11:59:20;1.80;;;1.45;;
35693;SDS011;21812;55.536;37.664;2023-05-17T12:01:47;5.13;;;1.40;;
35693;SDS011;21812;55.536;37.664;2023-05-17T12:04:24;1.80;;;1.40;;
35693;SDS011;21812;55.536;37.664;2023-05-17T12:06:54;4.03;;;1.45;;
35693;SDS011;21812;55.536;37.664;2023-05-17T12:09:23;6.60;;;1.70;;
35693;SDS011;21812;55.536;37.664;2023-05-17T12:11:51;5.25;;;1.42;;
35693;SDS011;21812;55.536;37.664;2023-05-17T12:14:18;4.55;;;1.45;;
35693;SDS011;21812;55.536;37.664;2023-05-17T12:16:46;5.38;;;1.10;;
35693;SDS011;21812;55.536;37.664;2023-05-17T12:19:20;5.78;;;1.45;;
35693;SDS011;21812;55.536;37.664;2023-05-17T12:21:47;2.75;;;1.38;;
35693;SDS011;21812;55.536;37.664;2023-05-17T12:24:14;5.68;;;1.55;;
35693;SDS011;21812;55.536;37.664;2023-05-17T12:26:43;3.67;;;1.55;;
35693;SDS011;21812;55.536;37.664;2023-05-17T12:29:11;5.15;;;1.40;;
35693;SDS011;21812;55.536;37.664;2023-05-17T12:31:46;7.72;;;1.50;;
35693;SDS011;21812;55.536;37.664;2023-05-17T12:34:14;2.60;;;1.23;;
35693;SDS011;21812;55.536;37.664;2023-05-17T12:36:41;1.30;;;1.13;;
35693;SDS011;21812;55.536;37.664;2023-05-17T12:39:08;1.40;;;1.10;;
35693;SDS011;21812;55.536;37.664;2023-05-17T12:41:37;2.42;;;1.30;;
35693;SDS011;21812;55.536;37.664;2023-05-17T12:44:07;2.80;;;1.65;;
35693;SDS011;21812;55.536;37.664;2023-05-17T12:46:33;2.45;;;1.40;;
35693;SDS011;21812;55.536;37.664;2023-05-17T12:49:06;2.55;;;1.25;;
35693;SDS011;21812;55.536;37.664;2023-05-17T12:51:39;2.65;;;1.23;;
35693;SDS011;21812;55.536;37.664;2023-05-17T12:54:13;1.92;;;1.17;;
35693;SDS011;21812;55.536;37.664;2023-05-17T12:56:49;7.57;;;1.67;;
35693;SDS011;21812;55.536;37.664;2023-05-17T12:59:16;1.90;;;1.33;;
35693;SDS011;21812;55.536;37.664;2023-05-17T13:01:43;2.10;;;1.48;;
35693;SDS011;21812;55.536;37.664;2023-05-17T13:04:09;5.88;;;1.30;;
35693;SDS011;21812;55.536;37.664;2023-05-17T13:06:49;2.15;;;1.35;;
35693;SDS011;21812;55.536;37.664;2023-05-17T13:09:19;3.35;;;1.20;;
35693;SDS011;21812;55.536;37.664;2023-05-17T13:11:55;2.88;;;1.40;;
35693;SDS011;21812;55.536;37.664;2023-05-17T13:17:16;3.58;;;1.50;;
35693;SDS011;21812;55.536;37.664;2023-05-17T13:19:45;5.22;;;1.52;;
35693;SDS011;21812;55.536;37.664;2023-05-17T13:22:11;2.53;;;1.10;;
35693;SDS011;21812;55.536;37.664;2023-05-17T13:24:38;2.33;;;1.40;;
35693;SDS011;21812;55.536;37.664;2023-05-17T13:27:05;3.38;;;1.40;;
35693;SDS011;21812;55.536;37.664;2023-05-17T13:29:32;7.03;;;1.50;;
35693;SDS011;21812;55.536;37.664;2023-05-17T13:31:59;2.20;;;1.30;;
35693;SDS011;21812;55.536;37.664;2023-05-17T13:34:25;4.15;;;1.58;;
35693;SDS011;21812;55.536;37.664;2023-05-17T13:36:51;4.47;;;1.38;;
35693;SDS011;21812;55.536;37.664;2023-05-17T13:39:16;4.63;;;1.50;;
35693;SDS011;21812;55.536;37.664;2023-05-17T13:41:42;2.35;;;1.10;;
35693;SDS011;21812;55.536;37.664;2023-05-17T13:44:09;4.45;;;1.40;;
35693;SDS011;21812;55.536;37.664;2023-05-17T13:46:35;5.75;;;1.40;;
35693;SDS011;21812;55.536;37.664;2023-05-17T13:49:01;1.95;;;1.27;;
35693;SDS011;21812;55.536;37.664;2023-05-17T13:51:29;2.00;;;1.38;;
35693;SDS011;21812;55.536;37.664;2023-05-17T13:53:56;1.50;;;1.35;;
35693;SDS011;21812;55.536;37.664;2023-05-17T13:56:22;6.28;;;1.75;;
35693;SDS011;21812;55.536;37.664;2023-05-17T13:58:48;4.57;;;1.65;;
35693;SDS011;21812;55.536;37.664;2023-05-17T14:01:15;2.28;;;1.60;;
35693;SDS011;21812;55.536;37.664;2023-05-17T14:03:43;2.60;;;1.80;;
35693;SDS011;21812;55.536;37.664;2023-05-17T14:06:09;3.85;;;1.55;;
35693;SDS011;21812;55.536;37.664;2023-05-17T14:08:35;5.70;;;1.65;;
35693;SDS011;21812;55.536;37.664;2023-05-17T14:11:01;5.85;;;1.88;;
35693;SDS011;21812;55.536;37.664;2023-05-17T14:13:27;6.13;;;2.10;;
35693;SDS011;21812;55.536;37.664;2023-05-17T14:15:53;3.28;;;1.70;;
35693;SDS011;21812;55.536;37.664;2023-05-17T14:18:18;7.70;;;1.60;;
35693;SDS011;21812;55.536;37.664;2023-05-17T14:20:44;5.80;;;1.63;;
35693;SDS011;21812;55.536;37.664;2023-05-17T14:23:10;2.92;;;1.77;;
35693;SDS011;21812;55.536;37.664;2023-05-17T14:25:35;3.35;;;1.55;;
35693;SDS011;21812;55.536;37.664;2023-05-17T14:28:01;3.72;;;1.70;;
35693;SDS011;21812;55.536;37.664;2023-05-17T14:30:27;3.45;;;2.05;;
35693;SDS011;21812;55.536;37.664;2023-05-17T14:32:53;6.07;;;1.90;;
35693;SDS011;21812;55.536;37.664;2023-05-17T14:35:18;3.72;;;1.90;;
35693;SDS011;21812;55.536;37.664;2023-05-17T14:37:44;4.40;;;1.80;;
35693;SDS011;21812;55.536;37.664;2023-05-17T14:40:10;3.47;;;1.80;;
35693;SDS011;21812;55.536;37.664;2023-05-17T14:42:36;6.50;;;2.05;;
35693;SDS011;21812;55.536;37.664;2023-05-17T14:45:03;6.18;;;2.30;;
35693;SDS011;21812;55.536;37.664;2023-05-17T14:47:32;8.10;;;2.63;;
35693;SDS011;21812;55.536;37.664;2023-05-17T14:49:58;4.72;;;2.05;;
35693;SDS011;21812;55.536;37.664;2023-05-17T14:52:24;4.38;;;2.13;;
35693;SDS011;21812;55.536;37.664;2023-05-17T14:54:50;7.57;;;2.08;;
35693;SDS011;21812;55.536;37.664;2023-05-17T14:57:15;18.98;;;3.13;;